createdAt,value
2023-03-21T00:01:54.243Z,7.56
2023-03-21T00:04:33.173Z,7.41
2023-03-21T00:07:10.668Z,7.27
2023-03-21T00:09:43.301Z,7.06
2023-03-21T00:12:16.736Z,6.98
2023-03-21T00:14:49.327Z,6.90
2023-03-21T00:17:23.947Z,6.86
2023-03-21T00:19:56.911Z,6.87
2023-03-21T00:22:28.796Z,6.77
2023-03-21T00:25:01.660Z,6.74
2023-03-21T00:27:53.250Z,6.73
2023-03-21T00:30:28.098Z,6.71
2023-03-21T00:33:05.879Z,6.62
2023-03-21T00:36:05.709Z,6.63
2023-03-21T00:38:39.797Z,6.64
2023-03-21T00:41:23.716Z,6.47
2023-03-21T00:44:04.623Z,6.58
2023-03-21T00:46:47.040Z,6.47
2023-03-21T00:49:22.064Z,6.44
2023-03-21T00:51:55.206Z,6.58
2023-03-21T00:54:30.034Z,6.69
2023-03-21T00:57:03.499Z,6.73
2023-03-21T00:59:36.092Z,6.69
2023-03-21T01:02:08.008Z,6.65
2023-03-21T01:04:41.203Z,6.63
2023-03-21T01:07:13.135Z,6.54
2023-03-21T01:09:45.955Z,6.66
2023-03-21T01:12:17.853Z,6.79
2023-03-21T01:14:50.804Z,6.93
2023-03-21T01:17:22.704Z,6.83
2023-03-21T01:19:55.634Z,6.79
2023-03-21T01:22:28.243Z,6.89
2023-03-21T01:25:19.275Z,6.76
2023-03-21T01:27:54.713Z,6.62
2023-03-21T01:30:31.204Z,6.67
2023-03-21T01:33:03.762Z,6.58
2023-03-21T01:35:49.263Z,6.49
2023-03-21T01:38:26.382Z,6.39
2023-03-21T01:41:17.163Z,6.15
2023-03-21T01:43:53.113Z,6.07
2023-03-21T01:47:03.584Z,5.86
2023-03-21T01:49:56.764Z,5.79
2023-03-21T01:52:38.764Z,5.79
2023-03-21T01:55:20.996Z,5.78
2023-03-21T01:58:06.629Z,5.77
2023-03-21T02:00:59.203Z,5.86
2023-03-21T02:03:50.004Z,5.87
2023-03-21T02:07:01.267Z,5.88
2023-03-21T02:09:52.439Z,5.86
2023-03-21T02:12:28.202Z,6.03
2023-03-21T02:15:02.287Z,6.12
2023-03-21T02:18:27.945Z,6.05
2023-03-21T02:21:21.224Z,6.07
2023-03-21T02:24:04.101Z,6.00
2023-03-21T02:27:24.284Z,5.96
2023-03-21T02:35:05.459Z,5.90
2023-03-21T02:38:22.470Z,5.85
2023-03-21T02:41:17.960Z,5.81
2023-03-21T02:44:27.504Z,5.66
2023-03-21T02:47:07.329Z,5.52
2023-03-21T02:49:54.468Z,5.60
2023-03-21T02:52:39.298Z,5.72
2023-03-21T02:55:22.792Z,5.78
2023-03-21T02:58:11.835Z,5.82
2023-03-21T03:00:49.464Z,5.69
2023-03-21T03:03:37.186Z,5.70
2023-03-21T03:06:27.926Z,5.73
2023-03-21T03:09:16.683Z,5.62
2023-03-21T03:11:58.491Z,5.56
2023-03-21T03:15:18.053Z,5.52
2023-03-21T03:18:07.399Z,5.42
2023-03-21T03:20:48.834Z,5.45
2023-03-21T03:23:43.396Z,5.38
2023-03-21T03:26:34.774Z,5.32
2023-03-21T03:29:12.436Z,5.17
2023-03-21T03:31:58.536Z,5.13
2023-03-21T03:34:44.188Z,4.95
2023-03-21T03:37:26.552Z,4.98
2023-03-21T03:40:08.916Z,5.01
2023-03-21T03:42:55.180Z,5.06
2023-03-21T03:45:42.839Z,5.03
2023-03-21T03:48:33.502Z,5.03
2023-03-21T03:51:16.192Z,5.00
2023-03-21T03:54:19.087Z,5.09
2023-03-21T03:56:51.270Z,5.09
2023-03-21T03:59:25.384Z,5.37
2023-03-21T04:02:15.001Z,5.41
2023-03-21T04:04:48.885Z,5.46
2023-03-21T04:07:22.326Z,5.40
2023-03-21T04:09:58.291Z,5.36
2023-03-21T04:12:30.946Z,5.45
2023-03-21T04:15:23.494Z,5.45
2023-03-21T04:18:01.204Z,5.32
2023-03-21T04:20:37.180Z,5.22
2023-03-21T04:23:11.459Z,5.28
2023-03-21T04:25:55.902Z,5.32
2023-03-21T04:28:33.590Z,5.20
2023-03-21T04:31:25.602Z,5.35
2023-03-21T04:34:12.868Z,5.38
2023-03-21T04:36:54.058Z,5.33
2023-03-21T04:39:26.786Z,5.48
2023-03-21T04:41:59.202Z,5.42
2023-03-21T04:44:33.255Z,5.35
2023-03-21T04:47:05.669Z,5.52
2023-03-21T04:49:38.325Z,5.42
2023-03-21T04:52:10.752Z,5.53
2023-03-21T04:54:44.084Z,5.36
2023-03-21T04:57:16.635Z,5.59
2023-03-21T04:59:49.197Z,5.48
2023-03-21T05:02:21.599Z,5.55
2023-03-21T05:04:54.166Z,8.93
2023-03-21T05:07:26.378Z,6.12
2023-03-21T05:10:02.316Z,5.75
2023-03-21T05:12:35.980Z,5.51
2023-03-21T05:15:09.990Z,5.38
2023-03-21T05:17:42.889Z,5.23
2023-03-21T05:20:17.635Z,5.15
2023-03-21T05:22:51.421Z,5.23
2023-03-21T05:25:34.328Z,5.05
2023-03-21T05:28:18.045Z,5.09
2023-03-21T05:30:51.570Z,5.16
2023-03-21T05:33:24.691Z,5.20
2023-03-21T05:35:57.357Z,5.26
2023-03-21T05:38:33.505Z,5.32
2023-03-21T05:41:06.487Z,7.96
2023-03-21T05:43:38.622Z,6.29
2023-03-21T05:46:12.201Z,5.84
2023-03-21T05:48:44.145Z,5.64
2023-03-21T05:51:22.109Z,5.48
2023-03-21T05:53:54.063Z,5.49
2023-03-21T05:56:27.599Z,5.42
2023-03-21T05:59:04.072Z,5.36
2023-03-21T06:01:41.457Z,5.32
2023-03-21T06:04:18.973Z,5.36
2023-03-21T06:06:53.771Z,5.35
2023-03-21T06:09:27.588Z,5.39
2023-03-21T06:12:04.441Z,5.47
2023-03-21T06:14:43.689Z,5.37
2023-03-21T06:17:36.540Z,5.55
2023-03-21T06:20:13.721Z,5.67
2023-03-21T06:22:54.269Z,5.95
2023-03-21T06:25:26.370Z,6.12
2023-03-21T06:27:59.563Z,6.42
2023-03-21T06:30:32.634Z,6.62
2023-03-21T06:33:19.218Z,6.70
2023-03-21T06:35:57.188Z,6.93
2023-03-21T06:38:30.329Z,7.07
2023-03-21T06:41:05.062Z,7.21
2023-03-21T06:43:45.996Z,7.37
2023-03-21T06:46:19.107Z,7.57
2023-03-21T06:48:51.266Z,7.61
2023-03-21T06:51:24.181Z,7.91
2023-03-21T06:54:18.897Z,8.18
2023-03-21T06:57:00.711Z,8.26
2023-03-21T06:59:36.530Z,8.14
2023-03-21T07:02:12.964Z,8.36
2023-03-21T07:05:08.348Z,8.48
2023-03-21T07:07:42.081Z,8.77
2023-03-21T07:10:14.175Z,8.89
2023-03-21T07:13:00.998Z,9.04
2023-03-21T07:15:55.893Z,9.37
2023-03-21T07:18:31.532Z,9.53
2023-03-21T07:21:04.059Z,9.69
2023-03-21T07:23:38.598Z,9.67
2023-03-21T07:26:11.049Z,9.62
2023-03-21T07:28:45.598Z,9.76
2023-03-21T07:31:19.512Z,9.84
2023-03-21T07:33:54.640Z,11.34
2023-03-21T07:36:28.429Z,13.69
2023-03-21T07:39:01.504Z,12.90
2023-03-21T07:41:33.926Z,11.64
2023-03-21T07:44:17.879Z,11.33
2023-03-21T07:46:50.454Z,11.34
2023-03-21T07:49:24.033Z,11.55
2023-03-21T07:51:56.684Z,12.00
2023-03-21T07:54:29.410Z,11.57
2023-03-21T07:57:01.376Z,11.65
2023-03-21T07:59:34.953Z,11.76
2023-03-21T08:02:07.327Z,11.33
2023-03-21T08:04:40.412Z,11.33
2023-03-21T08:07:12.709Z,11.78
2023-03-21T08:09:45.926Z,11.69
2023-03-21T08:12:18.301Z,11.63
2023-03-21T08:14:50.953Z,11.73
2023-03-21T08:17:23.349Z,11.64
2023-03-21T08:19:55.882Z,11.78
2023-03-21T08:22:27.964Z,11.86
2023-03-21T08:25:00.969Z,11.98
2023-03-21T08:27:33.866Z,12.16
2023-03-21T08:30:07.361Z,12.25
2023-03-21T08:32:40.660Z,12.56
2023-03-21T08:35:17.352Z,12.60
2023-03-21T08:37:49.763Z,13.23
2023-03-21T08:40:22.583Z,13.26
2023-03-21T08:42:55.394Z,13.45
2023-03-21T08:45:28.583Z,13.91
2023-03-21T08:48:02.498Z,13.94
2023-03-21T08:50:36.522Z,13.83
2023-03-21T08:53:08.624Z,13.70
2023-03-21T08:55:47.291Z,13.77
2023-03-21T08:58:19.577Z,13.98
2023-03-21T09:00:52.992Z,13.53
2023-03-21T09:03:27.269Z,13.33
2023-03-21T09:06:01.037Z,14.01
2023-03-21T09:08:32.943Z,14.25
2023-03-21T09:11:06.235Z,14.38
2023-03-21T09:13:38.606Z,15.01
2023-03-21T09:16:11.706Z,15.12
2023-03-21T09:18:47.258Z,16.34
2023-03-21T09:21:23.750Z,15.17
2023-03-21T09:23:58.778Z,15.53
2023-03-21T09:26:31.458Z,15.00
2023-03-21T09:29:04.891Z,15.81
2023-03-21T09:31:37.633Z,15.71
2023-03-21T09:34:09.829Z,15.18
2023-03-21T09:36:44.569Z,15.57
2023-03-21T09:39:17.075Z,15.98
2023-03-21T09:42:17.872Z,15.84
2023-03-21T09:45:19.654Z,15.43
2023-03-21T09:47:57.320Z,15.60
2023-03-21T09:50:34.666Z,15.90
2023-03-21T09:53:27.933Z,16.31
2023-03-21T09:56:02.427Z,16.41
2023-03-21T09:58:53.499Z,16.27
2023-03-21T10:01:34.186Z,16.21
2023-03-21T10:04:12.915Z,15.73
2023-03-21T10:06:57.783Z,16.21
2023-03-21T10:09:32.611Z,16.04
2023-03-21T10:12:15.052Z,16.83
2023-03-21T10:14:57.070Z,17.08
2023-03-21T10:17:41.121Z,17.01
2023-03-21T10:20:29.188Z,17.13
2023-03-21T10:23:07.008Z,17.27
2023-03-21T10:25:54.611Z,17.41
2023-03-21T10:28:52.036Z,17.38
2023-03-21T10:31:28.651Z,16.83
2023-03-21T10:34:12.001Z,17.78
2023-03-21T10:36:44.918Z,18.23
2023-03-21T10:39:36.322Z,18.47
2023-03-21T10:42:25.093Z,18.45
2023-03-21T10:44:58.874Z,18.92
2023-03-21T10:47:32.505Z,19.12
2023-03-21T10:53:19.884Z,20.05
2023-03-21T10:55:56.624Z,21.76
2023-03-21T10:58:35.358Z,20.59
2023-03-21T11:01:16.038Z,19.25
2023-03-21T11:03:48.538Z,20.03
2023-03-21T11:06:31.490Z,18.89
2023-03-21T11:09:16.738Z,19.63
2023-03-21T11:12:09.392Z,19.01
2023-03-21T11:14:44.946Z,19.94
2023-03-21T11:17:19.058Z,20.58
2023-03-21T11:20:00.215Z,20.19
2023-03-21T11:22:44.651Z,21.44
2023-03-21T11:25:38.377Z,20.74
2023-03-21T11:28:22.021Z,20.21
2023-03-21T11:31:01.114Z,21.45
2023-03-21T11:33:42.854Z,20.66
2023-03-21T11:36:21.774Z,20.68
2023-03-21T11:39:44.300Z,21.43
2023-03-21T11:42:32.788Z,20.96
2023-03-21T11:45:21.798Z,20.60
2023-03-21T11:47:56.933Z,20.90
2023-03-21T11:50:35.792Z,19.98
2023-03-21T11:53:41.651Z,20.45
2023-03-21T11:56:37.153Z,20.44
2023-03-21T11:59:37.768Z,20.11
2023-03-21T12:02:56.390Z,19.46
2023-03-21T12:05:44.940Z,18.25
2023-03-21T12:12:38.853Z,18.35
2023-03-21T12:15:32.186Z,18.72
2023-03-21T12:18:32.775Z,18.35
2023-03-21T12:21:35.999Z,18.10
2023-03-21T12:24:21.695Z,18.26
2023-03-21T12:27:28.234Z,18.38
2023-03-21T12:30:10.046Z,18.47
2023-03-21T12:32:49.711Z,18.17
2023-03-21T12:35:49.818Z,18.54
2023-03-21T12:38:59.472Z,18.29
2023-03-21T12:41:50.957Z,18.52
2023-03-21T12:44:26.374Z,18.43
2023-03-21T12:47:11.990Z,18.32
2023-03-21T12:50:03.758Z,18.11
2023-03-21T12:52:45.277Z,18.55
2023-03-21T12:55:25.666Z,18.45
2023-03-21T12:58:26.208Z,18.72
2023-03-21T13:01:01.640Z,19.06
2023-03-21T13:03:44.446Z,19.08
2023-03-21T13:06:18.741Z,19.65
2023-03-21T13:09:36.835Z,19.86
2023-03-21T13:12:36.049Z,19.76
2023-03-21T13:15:24.679Z,19.60
2023-03-21T13:18:36.088Z,19.28
2023-03-21T13:21:42.530Z,19.09
2023-03-21T13:24:33.174Z,19.17
2023-03-21T13:27:31.851Z,19.13
2023-03-21T13:30:20.894Z,19.24
2023-03-21T13:33:07.812Z,19.02
2023-03-21T13:35:44.306Z,18.77
2023-03-21T13:38:29.007Z,19.01
2023-03-21T13:41:27.387Z,19.09
2023-03-21T13:44:50.142Z,19.26
2023-03-21T13:47:36.131Z,18.92
2023-03-21T13:50:18.166Z,19.08
2023-03-21T13:53:21.300Z,19.28
2023-03-21T13:56:21.691Z,18.92
2023-03-21T13:58:59.340Z,18.98
2023-03-21T14:01:39.610Z,18.85
2023-03-21T14:04:14.902Z,18.86
2023-03-21T14:07:21.721Z,18.63
2023-03-21T14:10:01.345Z,18.13
2023-03-21T14:12:42.647Z,18.47
2023-03-21T14:15:40.880Z,18.91
2023-03-21T14:18:28.240Z,19.06
2023-03-21T14:24:17.564Z,18.75
2023-03-21T14:26:55.250Z,18.32
2023-03-21T14:29:34.501Z,17.99
2023-03-21T14:35:02.388Z,18.11
2023-03-21T14:37:42.342Z,18.57
2023-03-21T14:40:22.935Z,18.49
2023-03-21T14:45:55.295Z,18.77
2023-03-21T14:48:34.064Z,18.70
2023-03-21T14:51:11.356Z,18.60
2023-03-21T14:53:44.754Z,18.47
2023-03-21T14:56:25.712Z,18.62
2023-03-21T14:58:58.414Z,18.34
2023-03-21T15:01:35.209Z,18.40
2023-03-21T15:04:07.640Z,18.24
2023-03-21T15:09:55.911Z,17.98
2023-03-21T15:12:29.057Z,17.94
2023-03-21T15:15:01.865Z,17.82
2023-03-21T15:17:34.304Z,17.74
2023-03-21T15:20:34.504Z,17.72
2023-03-21T15:23:14.007Z,17.82
2023-03-21T15:25:47.094Z,17.94
2023-03-21T15:28:20.033Z,18.01
2023-03-21T15:30:53.884Z,18.12
2023-03-21T15:33:28.004Z,17.93
2023-03-21T15:36:29.230Z,18.08
2023-03-21T15:39:08.155Z,17.91
2023-03-21T15:41:40.212Z,17.94
2023-03-21T15:44:16.081Z,17.90
2023-03-21T15:46:52.787Z,17.89
2023-03-21T15:49:35.062Z,17.86
2023-03-21T15:52:17.471Z,17.70
2023-03-21T15:54:55.874Z,17.69
2023-03-21T15:57:34.437Z,17.77
2023-03-21T16:00:34.159Z,17.73
2023-03-21T16:03:39.248Z,17.71
2023-03-21T16:06:33.606Z,17.66
2023-03-21T16:09:09.709Z,17.58
2023-03-21T16:11:44.581Z,17.47
2023-03-21T16:14:19.136Z,17.37
2023-03-21T16:16:52.864Z,17.42
2023-03-21T16:19:30.008Z,17.39
2023-03-21T16:22:02.174Z,17.23
2023-03-21T16:24:34.900Z,17.34
2023-03-21T16:27:11.977Z,17.32
2023-03-21T16:29:44.244Z,17.45
2023-03-21T16:32:19.032Z,17.29
2023-03-21T16:34:53.600Z,17.25
2023-03-21T16:37:26.914Z,17.11
2023-03-21T16:39:59.694Z,17.25
2023-03-21T16:42:31.911Z,17.11
2023-03-21T16:45:05.367Z,16.96
2023-03-21T16:47:37.463Z,16.92
2023-03-21T16:50:33.567Z,16.77
2023-03-21T16:53:06.371Z,16.77
2023-03-21T16:55:38.848Z,16.59
2023-03-21T16:58:15.986Z,16.57
2023-03-21T17:00:48.758Z,16.59
2023-03-21T17:03:22.001Z,16.56
2023-03-21T17:05:54.391Z,16.49
2023-03-21T17:08:29.079Z,16.42
2023-03-21T17:11:06.904Z,16.40
2023-03-21T17:13:40.726Z,16.31
2023-03-21T17:16:16.708Z,16.38
2023-03-21T17:18:49.672Z,16.36
2023-03-21T17:21:26.533Z,16.29
2023-03-21T17:23:58.382Z,16.21
2023-03-21T17:26:31.570Z,16.14
2023-03-21T17:29:04.464Z,16.10
2023-03-21T17:31:38.481Z,16.06
2023-03-21T17:34:20.246Z,16.05
2023-03-21T17:36:52.966Z,16.04
2023-03-21T17:39:28.994Z,15.92
2023-03-21T17:42:02.252Z,15.92
2023-03-21T17:44:34.983Z,15.86
2023-03-21T17:47:29.794Z,15.84
2023-03-21T17:50:04.230Z,15.80
2023-03-21T17:52:37.848Z,15.77
2023-03-21T17:55:11.557Z,15.76
2023-03-21T17:57:43.836Z,15.71
2023-03-21T18:00:26.083Z,15.73
2023-03-21T18:02:58.864Z,15.67
2023-03-21T18:05:32.187Z,15.58
2023-03-21T18:08:11.325Z,15.60
2023-03-21T18:10:44.101Z,15.62
2023-03-21T18:13:16.413Z,15.64
2023-03-21T18:15:51.060Z,15.60
2023-03-21T18:18:27.073Z,15.61
2023-03-21T18:20:59.767Z,15.63
2023-03-21T18:23:32.505Z,15.62
2023-03-21T18:26:07.198Z,15.61
2023-03-21T18:28:41.304Z,15.60
2023-03-21T18:31:19.852Z,15.60
2023-03-21T18:33:55.945Z,15.57
2023-03-21T18:36:29.154Z,15.54
2023-03-21T18:39:05.465Z,15.55
2023-03-21T18:41:39.597Z,15.50
2023-03-21T18:44:19.382Z,15.53
2023-03-21T18:46:54.426Z,15.50
2023-03-21T18:50:05.900Z,15.48
2023-03-21T18:52:19.741Z,15.47
2023-03-21T18:54:53.232Z,15.55
2023-03-21T18:57:36.542Z,15.52
2023-03-21T19:00:16.984Z,15.50
2023-03-21T19:05:44.935Z,15.58
2023-03-21T19:08:18.055Z,15.64
2023-03-21T19:10:51.207Z,15.58
2023-03-21T19:13:24.231Z,15.52
2023-03-21T19:15:57.094Z,15.50
2023-03-21T19:21:24.601Z,15.47
2023-03-21T19:24:25.106Z,15.37
2023-03-21T19:26:51.190Z,15.39
2023-03-21T19:29:24.911Z,15.40
2023-03-21T19:31:58.016Z,15.25
2023-03-21T19:34:30.404Z,15.09
2023-03-21T19:37:02.813Z,15.03
2023-03-21T19:39:38.312Z,14.89
2023-03-21T19:42:16.456Z,14.88
2023-03-21T19:44:50.425Z,14.79
2023-03-21T19:47:23.116Z,14.72
2023-03-21T19:50:40.896Z,14.63
2023-03-21T19:52:48.640Z,14.70
2023-03-21T19:55:21.738Z,14.75
2023-03-21T19:57:54.745Z,14.69
2023-03-21T20:00:27.039Z,14.62
2023-03-21T20:02:59.843Z,14.53
2023-03-21T20:05:31.758Z,14.40
2023-03-21T20:08:05.082Z,14.28
2023-03-21T20:13:33.092Z,14.21
2023-03-21T20:16:05.697Z,14.36
2023-03-21T20:18:38.100Z,14.23
2023-03-21T20:21:17.590Z,14.27
2023-03-21T20:23:51.000Z,14.36
2023-03-21T20:26:23.814Z,14.42
2023-03-21T20:29:27.978Z,14.29
2023-03-21T20:31:51.115Z,14.36
2023-03-21T20:34:23.058Z,14.37
2023-03-21T20:36:55.898Z,14.28
2023-03-21T20:39:29.882Z,14.32
2023-03-21T20:42:03.692Z,14.21
2023-03-21T20:44:57.167Z,14.26
2023-03-21T20:47:28.452Z,14.28
2023-03-21T20:50:23.053Z,14.76
2023-03-21T20:53:06.400Z,14.80
2023-03-21T20:55:40.235Z,14.51
2023-03-21T20:58:36.746Z,14.42
2023-03-21T21:01:15.348Z,14.43
2023-03-21T21:03:49.421Z,14.41
2023-03-21T21:06:23.307Z,14.40
2023-03-21T21:08:55.754Z,14.36
2023-03-21T21:14:22.061Z,14.21
2023-03-21T21:16:55.753Z,14.12
2023-03-21T21:19:28.633Z,14.07
2023-03-21T21:22:01.173Z,14.01
2023-03-21T21:24:34.210Z,14.06
2023-03-21T21:27:06.864Z,14.13
2023-03-21T21:29:39.806Z,14.16
2023-03-21T21:32:12.185Z,14.16
2023-03-21T21:34:45.141Z,14.28
2023-03-21T21:37:18.753Z,14.34
2023-03-21T21:39:51.331Z,14.27
2023-03-21T21:42:23.923Z,14.28
2023-03-21T21:44:57.389Z,14.31
2023-03-21T21:47:29.332Z,14.30
2023-03-21T21:50:02.172Z,14.39
2023-03-21T21:52:55.705Z,14.51
2023-03-21T21:55:27.949Z,14.51
2023-03-21T21:58:02.777Z,14.51
2023-03-21T22:00:36.255Z,14.46
2023-03-21T22:06:04.885Z,14.47
2023-03-21T22:08:37.658Z,14.54
2023-03-21T22:11:10.014Z,14.52
2023-03-21T22:14:01.165Z,14.44
2023-03-21T22:16:34.222Z,14.42
2023-03-21T22:19:06.210Z,14.31
2023-03-21T22:21:39.334Z,14.29
2023-03-21T22:24:11.280Z,14.25
2023-03-21T22:26:44.076Z,14.12
2023-03-21T22:29:18.911Z,14.02
2023-03-21T22:31:54.145Z,14.01
2023-03-21T22:34:28.039Z,14.06
2023-03-21T22:37:02.501Z,13.99
2023-03-21T22:39:35.545Z,13.99
2023-03-21T22:42:07.951Z,13.95
2023-03-21T22:44:40.214Z,13.90
2023-03-21T22:47:13.443Z,13.83
2023-03-21T22:49:46.253Z,13.75
2023-03-21T22:52:19.068Z,13.70
2023-03-21T22:54:51.551Z,13.49
2023-03-21T22:57:26.590Z,13.17
2023-03-21T22:59:58.968Z,12.97
2023-03-21T23:02:32.099Z,12.82
2023-03-21T23:05:04.658Z,12.69
2023-03-21T23:07:37.458Z,12.61
2023-03-21T23:10:12.622Z,12.50
2023-03-21T23:12:45.382Z,12.39
2023-03-21T23:15:17.776Z,12.32
2023-03-21T23:17:50.161Z,12.24
2023-03-21T23:20:22.501Z,12.15
2023-03-21T23:22:54.896Z,11.94
2023-03-21T23:25:29.443Z,12.12
2023-03-21T23:28:02.014Z,12.29
2023-03-21T23:30:34.312Z,12.27
2023-03-21T23:33:06.251Z,12.15
2023-03-21T23:35:39.497Z,12.25
2023-03-21T23:38:11.452Z,12.17
2023-03-21T23:40:44.436Z,12.15
2023-03-21T23:43:16.322Z,12.20
2023-03-21T23:45:49.134Z,12.03
2023-03-21T23:48:21.398Z,12.25
2023-03-21T23:50:54.671Z,12.12
2023-03-21T23:53:27.428Z,12.32
2023-03-21T23:56:02.049Z,12.26
2023-03-21T23:58:34.823Z,12.25
